createdAt,value
2022-11-03T00:01:36.148Z,1.67
2022-11-03T00:04:04.309Z,2.00
2022-11-03T00:06:31.124Z,1.85
2022-11-03T00:08:59.816Z,2.00
2022-11-03T00:11:30.681Z,1.80
2022-11-03T00:13:59.907Z,1.90
2022-11-03T00:16:28.858Z,2.00
2022-11-03T00:18:57.614Z,1.45
2022-11-03T00:21:25.204Z,2.45
2022-11-03T00:23:53.258Z,1.60
2022-11-03T00:26:22.695Z,1.70
2022-11-03T00:28:53.662Z,1.98
2022-11-03T00:31:23.700Z,1.40
2022-11-03T00:33:52.291Z,1.50
2022-11-03T00:36:21.184Z,1.43
2022-11-03T00:38:49.171Z,1.80
2022-11-03T00:41:17.565Z,1.88
2022-11-03T00:43:45.110Z,1.60
2022-11-03T00:46:15.602Z,1.88
2022-11-03T00:48:43.820Z,2.13
2022-11-03T00:51:13.313Z,1.77
2022-11-03T00:53:42.537Z,1.98
2022-11-03T00:56:12.579Z,1.67
2022-11-03T00:58:41.218Z,1.98
2022-11-03T01:01:12.650Z,1.50
2022-11-03T01:04:02.986Z,1.92
2022-11-03T01:06:48.805Z,1.65
2022-11-03T01:09:16.880Z,1.80
2022-11-03T01:11:52.018Z,1.67
2022-11-03T01:14:19.880Z,2.33
2022-11-03T01:16:48.360Z,1.50
2022-11-03T01:19:17.359Z,1.88
2022-11-03T01:21:45.418Z,1.65
2022-11-03T01:24:12.954Z,1.60
2022-11-03T01:26:40.688Z,1.75
2022-11-03T01:29:08.423Z,1.58
2022-11-03T01:31:35.998Z,2.43
2022-11-03T01:34:03.862Z,1.60
2022-11-03T01:36:33.950Z,1.73
2022-11-03T01:39:01.709Z,1.53
2022-11-03T01:41:29.611Z,1.98
2022-11-03T01:44:31.451Z,1.60
2022-11-03T01:47:04.774Z,1.35
2022-11-03T01:49:36.421Z,2.07
2022-11-03T01:52:07.898Z,2.08
2022-11-03T01:54:38.005Z,2.25
2022-11-03T01:57:07.774Z,1.80
2022-11-03T01:59:37.138Z,1.73
2022-11-03T02:02:04.841Z,1.73
2022-11-03T02:04:34.639Z,1.60
2022-11-03T02:07:11.070Z,1.90
2022-11-03T02:09:38.879Z,1.58
2022-11-03T02:12:08.000Z,1.23
2022-11-03T02:14:37.175Z,2.03
2022-11-03T02:17:07.843Z,2.05
2022-11-03T02:19:39.712Z,1.95
2022-11-03T02:22:21.296Z,1.90
2022-11-03T02:24:54.218Z,2.22
2022-11-03T02:27:23.576Z,2.60
2022-11-03T02:29:51.470Z,1.65
2022-11-03T02:32:22.554Z,2.13
2022-11-03T02:34:57.045Z,1.55
2022-11-03T02:37:28.200Z,1.77
2022-11-03T02:39:59.252Z,2.40
2022-11-03T02:42:28.972Z,2.47
2022-11-03T02:45:00.013Z,1.73
2022-11-03T02:47:29.100Z,2.17
2022-11-03T02:52:39.572Z,2.30
2022-11-03T02:55:12.100Z,1.70
2022-11-03T02:57:46.120Z,2.00
2022-11-03T03:00:15.068Z,1.93
2022-11-03T03:02:49.781Z,2.03
2022-11-03T03:05:19.065Z,1.83
2022-11-03T03:07:48.483Z,2.00
2022-11-03T03:10:18.042Z,2.20
2022-11-03T03:12:50.638Z,1.77
2022-11-03T03:15:20.116Z,2.08
2022-11-03T03:17:51.485Z,2.20
2022-11-03T03:20:24.439Z,2.60
2022-11-03T03:22:56.799Z,1.90
2022-11-03T03:25:27.439Z,1.85
2022-11-03T03:27:59.392Z,2.10
2022-11-03T03:30:29.070Z,2.67
2022-11-03T03:32:57.866Z,2.22
2022-11-03T03:35:29.812Z,2.40
2022-11-03T03:38:01.366Z,1.70
2022-11-03T03:40:32.188Z,1.95
2022-11-03T03:43:01.876Z,2.30
2022-11-03T03:45:31.106Z,2.00
2022-11-03T03:47:59.279Z,2.20
2022-11-03T03:50:28.520Z,2.17
2022-11-03T03:52:56.710Z,1.98
2022-11-03T03:55:27.848Z,1.77
2022-11-03T03:57:58.008Z,1.97
2022-11-03T04:00:29.438Z,1.65
2022-11-03T04:02:57.982Z,2.35
2022-11-03T04:05:25.869Z,2.50
2022-11-03T04:07:54.306Z,2.23
2022-11-03T04:10:23.561Z,1.92
2022-11-03T04:13:06.022Z,1.65
2022-11-03T04:15:52.582Z,1.45
2022-11-03T04:18:39.105Z,2.67
2022-11-03T04:21:24.971Z,1.85
2022-11-03T04:23:52.853Z,2.17
2022-11-03T04:26:23.003Z,1.50
2022-11-03T04:28:51.325Z,2.47
2022-11-03T04:31:20.843Z,1.98
2022-11-03T04:33:49.716Z,2.10
2022-11-03T04:36:20.622Z,1.90
2022-11-03T04:38:49.656Z,1.80
2022-11-03T04:41:20.957Z,1.83
2022-11-03T04:43:49.807Z,1.88
2022-11-03T04:46:23.473Z,1.33
2022-11-03T04:48:51.209Z,1.88
2022-11-03T04:51:20.496Z,2.00
2022-11-03T04:53:50.353Z,1.80
2022-11-03T04:56:22.166Z,1.85
2022-11-03T04:58:50.279Z,1.60
2022-11-03T05:01:24.289Z,2.10
2022-11-03T05:03:54.766Z,2.08
2022-11-03T05:06:24.289Z,1.77
2022-11-03T05:08:53.942Z,2.17
2022-11-03T05:11:31.200Z,1.63
2022-11-03T05:14:00.269Z,1.65
2022-11-03T05:16:30.195Z,1.85
2022-11-03T05:18:57.927Z,1.92
2022-11-03T05:21:28.369Z,1.95
2022-11-03T05:23:59.474Z,1.83
2022-11-03T05:26:31.444Z,1.80
2022-11-03T05:29:02.262Z,1.77
2022-11-03T05:31:33.088Z,1.60
2022-11-03T05:34:02.641Z,1.90
2022-11-03T05:36:45.849Z,1.95
2022-11-03T05:39:27.845Z,1.88
2022-11-03T05:41:55.900Z,1.92
2022-11-03T05:44:29.008Z,2.30
2022-11-03T05:46:58.999Z,1.80
2022-11-03T05:49:28.840Z,2.08
2022-11-03T05:51:56.578Z,1.83
2022-11-03T05:54:26.291Z,1.90
2022-11-03T05:56:55.142Z,2.05
2022-11-03T05:59:26.405Z,1.87
2022-11-03T06:01:54.561Z,1.90
2022-11-03T06:04:28.666Z,1.58
2022-11-03T06:07:00.127Z,2.37
2022-11-03T06:09:28.355Z,1.88
2022-11-03T06:11:58.909Z,1.50
2022-11-03T06:14:27.631Z,2.00
2022-11-03T06:16:57.900Z,2.15
2022-11-03T06:19:30.577Z,2.38
2022-11-03T06:21:59.433Z,1.85
2022-11-03T06:24:31.357Z,1.48
2022-11-03T06:26:59.647Z,1.90
2022-11-03T06:29:27.430Z,1.60
2022-11-03T06:31:57.858Z,2.30
2022-11-03T06:34:35.716Z,2.33
2022-11-03T06:37:12.662Z,2.60
2022-11-03T06:39:41.451Z,1.70
2022-11-03T06:42:13.406Z,2.00
2022-11-03T06:44:42.385Z,1.83
2022-11-03T06:47:19.398Z,1.77
2022-11-03T06:49:50.201Z,1.90
2022-11-03T06:52:26.377Z,1.88
2022-11-03T06:54:57.643Z,1.98
2022-11-03T06:57:25.385Z,2.15
2022-11-03T07:00:06.714Z,2.35
2022-11-03T07:02:54.248Z,2.10
2022-11-03T07:05:25.490Z,1.80
2022-11-03T07:07:56.231Z,1.70
2022-11-03T07:10:26.296Z,1.73
2022-11-03T07:12:54.740Z,1.65
2022-11-03T07:15:26.222Z,2.03
2022-11-03T07:17:54.198Z,1.60
2022-11-03T07:20:23.296Z,1.92
2022-11-03T07:22:52.132Z,1.90
2022-11-03T07:25:21.616Z,1.73
2022-11-03T07:28:05.746Z,1.60
2022-11-03T07:30:35.443Z,2.13
2022-11-03T07:33:12.437Z,1.95
2022-11-03T07:36:08.948Z,1.40
2022-11-03T07:38:31.326Z,1.77
2022-11-03T07:41:00.280Z,1.98
2022-11-03T07:43:30.721Z,1.80
2022-11-03T07:45:59.692Z,1.90
2022-11-03T07:48:28.865Z,1.77
2022-11-03T07:51:00.755Z,1.93
2022-11-03T07:53:36.994Z,1.67
2022-11-03T07:56:15.072Z,2.15
2022-11-03T07:58:43.634Z,2.28
2022-11-03T08:01:24.554Z,1.75
2022-11-03T08:03:52.663Z,1.50
2022-11-03T08:06:21.537Z,1.90
2022-11-03T08:08:49.457Z,1.50
2022-11-03T08:11:17.038Z,1.48
2022-11-03T08:13:44.555Z,2.28
2022-11-03T08:16:12.184Z,2.13
2022-11-03T08:18:39.770Z,1.77
2022-11-03T08:21:07.456Z,1.65
2022-11-03T08:23:36.488Z,1.52
2022-11-03T08:26:04.518Z,1.40
2022-11-03T08:28:33.549Z,1.70
2022-11-03T08:31:02.239Z,1.52
2022-11-03T08:35:57.568Z,1.70
2022-11-03T08:38:25.310Z,1.75
2022-11-03T08:40:55.376Z,1.90
2022-11-03T08:43:23.500Z,1.92
2022-11-03T08:45:53.527Z,2.03
2022-11-03T08:48:21.859Z,1.63
2022-11-03T08:50:50.419Z,1.67
2022-11-03T08:53:18.237Z,1.73
2022-11-03T08:55:47.101Z,1.83
2022-11-03T08:58:16.847Z,1.65
2022-11-03T09:00:44.697Z,1.50
2022-11-03T09:03:12.292Z,1.98
2022-11-03T09:05:40.267Z,1.77
2022-11-03T09:11:03.714Z,1.80
2022-11-03T09:13:35.186Z,2.22
2022-11-03T09:16:03.733Z,1.80
2022-11-03T09:18:33.004Z,2.40
2022-11-03T09:21:00.924Z,2.05
2022-11-03T09:23:28.466Z,2.10
2022-11-03T09:25:56.963Z,1.98
2022-11-03T09:28:25.471Z,1.90
2022-11-03T09:30:55.298Z,1.73
2022-11-03T09:33:22.875Z,1.75
2022-11-03T09:35:50.759Z,1.80
2022-11-03T09:38:18.531Z,2.00
2022-11-03T09:40:46.307Z,1.77
2022-11-03T09:43:15.049Z,1.60
2022-11-03T09:45:42.780Z,1.38
2022-11-03T09:48:13.388Z,2.90
2022-11-03T09:50:41.152Z,1.48
2022-11-03T09:53:10.915Z,1.70
2022-11-03T09:55:38.630Z,1.80
2022-11-03T09:58:13.921Z,1.70
2022-11-03T10:00:41.708Z,1.70
2022-11-03T10:03:12.913Z,1.80
2022-11-03T10:05:41.233Z,1.52
2022-11-03T10:08:17.078Z,1.55
2022-11-03T10:10:49.452Z,1.60
2022-11-03T10:13:18.991Z,1.40
2022-11-03T10:15:46.545Z,2.00
2022-11-03T10:18:21.458Z,1.73
2022-11-03T10:20:49.170Z,1.38
2022-11-03T10:23:17.237Z,1.58
2022-11-03T10:25:46.157Z,1.20
2022-11-03T10:28:19.315Z,1.60
2022-11-03T10:31:10.563Z,1.20
2022-11-03T10:33:42.138Z,1.88
2022-11-03T10:36:24.335Z,1.70
2022-11-03T10:38:51.974Z,1.17
2022-11-03T10:41:21.045Z,1.45
2022-11-03T10:44:01.431Z,1.83
2022-11-03T10:46:49.105Z,1.33
2022-11-03T10:49:20.379Z,1.53
2022-11-03T10:51:50.164Z,1.20
2022-11-03T10:54:19.361Z,1.40
2022-11-03T10:56:49.276Z,1.60
2022-11-03T10:59:18.973Z,2.70
2022-11-03T11:01:46.719Z,1.27
2022-11-03T11:04:18.369Z,1.40
2022-11-03T11:06:47.256Z,1.20
2022-11-03T11:09:17.785Z,1.25
2022-11-03T11:12:00.299Z,1.55
2022-11-03T11:14:39.039Z,1.15
2022-11-03T11:17:06.646Z,1.20
2022-11-03T11:20:07.772Z,1.23
2022-11-03T11:22:36.702Z,1.63
2022-11-03T11:25:04.536Z,1.33
2022-11-03T11:28:09.364Z,1.77
2022-11-03T11:31:04.488Z,1.90
2022-11-03T11:33:34.266Z,1.45
2022-11-03T11:36:28.664Z,1.58
2022-11-03T11:39:01.918Z,1.52
2022-11-03T11:42:07.184Z,1.35
2022-11-03T11:44:49.814Z,2.15
2022-11-03T11:47:25.995Z,2.03
2022-11-03T11:50:04.521Z,2.33
2022-11-03T11:52:32.745Z,1.48
2022-11-03T11:55:01.873Z,1.48
2022-11-03T11:57:31.741Z,1.35
2022-11-03T11:59:59.417Z,1.30
2022-11-03T12:02:31.018Z,1.88
2022-11-03T12:05:01.313Z,1.30
2022-11-03T12:07:38.238Z,1.67
2022-11-03T12:10:11.162Z,1.60
2022-11-03T12:12:38.715Z,1.40
2022-11-03T12:15:07.381Z,1.50
2022-11-03T12:17:38.046Z,1.48
2022-11-03T12:20:35.754Z,1.63
2022-11-03T12:23:04.273Z,1.30
2022-11-03T12:25:37.991Z,1.40
2022-11-03T12:28:06.436Z,1.40
2022-11-03T12:30:39.442Z,1.98
2022-11-03T12:33:08.018Z,1.52
2022-11-03T12:35:37.005Z,1.40
2022-11-03T12:38:04.520Z,3.30
2022-11-03T12:40:32.220Z,8.27
2022-11-03T12:43:01.082Z,1.65
2022-11-03T12:45:28.799Z,1.40
2022-11-03T12:47:56.270Z,1.30
2022-11-03T12:50:23.756Z,1.33
2022-11-03T12:52:51.298Z,1.15
2022-11-03T12:55:18.861Z,1.60
2022-11-03T12:57:46.938Z,1.48
2022-11-03T13:00:17.501Z,1.75
2022-11-03T13:02:45.203Z,1.48
2022-11-03T13:05:15.380Z,1.25
2022-11-03T13:07:42.966Z,1.50
2022-11-03T13:10:11.185Z,1.20
2022-11-03T13:12:41.355Z,1.33
2022-11-03T13:15:13.283Z,1.30
2022-11-03T13:20:31.059Z,1.77
2022-11-03T13:22:58.558Z,1.60
2022-11-03T13:25:26.380Z,1.40
2022-11-03T13:27:54.727Z,1.50
2022-11-03T13:30:22.340Z,1.35
2022-11-03T13:32:51.347Z,1.88
2022-11-03T13:35:18.882Z,3.60
2022-11-03T13:37:46.698Z,1.55
2022-11-03T13:40:50.524Z,1.77
2022-11-03T13:43:05.607Z,1.55
2022-11-03T13:45:33.349Z,1.40
2022-11-03T13:50:53.452Z,1.17
2022-11-03T13:56:13.219Z,1.55
2022-11-03T14:01:32.779Z,1.40
2022-11-03T14:06:49.393Z,1.40
2022-11-03T14:09:17.908Z,1.20
2022-11-03T14:12:03.310Z,0.90
2022-11-03T14:14:30.797Z,1.05
2022-11-03T14:16:58.317Z,1.00
2022-11-03T14:19:36.551Z,0.90
2022-11-03T14:22:07.522Z,1.80
2022-11-03T14:24:35.114Z,1.27
2022-11-03T14:27:02.596Z,0.98
2022-11-03T14:29:30.256Z,1.17
2022-11-03T14:31:57.919Z,0.95
2022-11-03T14:34:27.111Z,1.20
2022-11-03T14:36:55.785Z,0.90
2022-11-03T14:39:24.910Z,1.30
2022-11-03T14:42:04.008Z,1.10
2022-11-03T14:44:32.440Z,0.90
2022-11-03T14:47:01.344Z,1.08
2022-11-03T14:49:30.612Z,1.05
2022-11-03T14:52:01.230Z,1.48
2022-11-03T14:54:29.454Z,1.23
2022-11-03T14:56:57.124Z,1.08
2022-11-03T14:59:24.875Z,1.50
2022-11-03T15:01:53.935Z,1.25
2022-11-03T15:04:21.873Z,1.05
2022-11-03T15:06:50.932Z,1.10
2022-11-03T15:09:19.639Z,1.50
2022-11-03T15:11:48.057Z,1.45
2022-11-03T15:14:15.636Z,2.00
2022-11-03T15:16:44.650Z,1.60
2022-11-03T15:19:13.446Z,1.73
2022-11-03T15:21:40.980Z,1.08
2022-11-03T15:26:58.036Z,1.50
2022-11-03T15:29:25.715Z,1.40
2022-11-03T15:31:53.330Z,1.38
2022-11-03T15:34:20.999Z,1.27
2022-11-03T15:36:48.610Z,1.60
2022-11-03T15:39:17.846Z,1.60
2022-11-03T15:41:45.411Z,1.40
2022-11-03T15:44:12.935Z,1.30
2022-11-03T15:46:40.565Z,1.30
2022-11-03T15:49:08.223Z,1.30
2022-11-03T15:51:36.004Z,1.40
2022-11-03T15:54:03.564Z,1.48
2022-11-03T15:56:32.707Z,1.50
2022-11-03T15:59:00.312Z,1.35
2022-11-03T16:01:27.929Z,1.63
2022-11-03T16:03:55.489Z,1.48
2022-11-03T16:06:40.176Z,1.30
2022-11-03T16:09:10.737Z,1.60
2022-11-03T16:11:40.378Z,1.80
2022-11-03T16:14:10.448Z,1.40
2022-11-03T16:16:38.245Z,2.00
2022-11-03T16:19:05.859Z,1.88
2022-11-03T16:21:33.381Z,1.50
2022-11-03T16:24:00.983Z,1.77
2022-11-03T16:26:28.743Z,1.80
2022-11-03T16:28:57.653Z,1.60
2022-11-03T16:31:25.372Z,2.10
2022-11-03T16:33:53.067Z,1.45
2022-11-03T16:36:21.658Z,1.95
2022-11-03T16:38:49.378Z,1.73
2022-11-03T16:41:17.128Z,1.50
2022-11-03T16:43:44.697Z,1.90
2022-11-03T16:46:13.615Z,1.90
2022-11-03T16:48:41.204Z,1.83
2022-11-03T16:51:08.735Z,1.58
2022-11-03T16:53:36.524Z,1.50
2022-11-03T16:56:04.468Z,1.95
2022-11-03T16:58:31.995Z,1.90
2022-11-03T17:00:59.854Z,1.95
2022-11-03T17:03:29.043Z,2.05
2022-11-03T17:05:56.678Z,1.92
2022-11-03T17:08:51.439Z,2.10
2022-11-03T17:11:11.917Z,2.25
2022-11-03T17:13:39.653Z,2.22
2022-11-03T17:16:07.479Z,2.03
2022-11-03T17:18:36.766Z,1.90
2022-11-03T17:21:04.421Z,2.00
2022-11-03T17:23:31.924Z,1.95
2022-11-03T17:26:01.273Z,2.47
2022-11-03T17:28:28.846Z,2.17
2022-11-03T17:30:56.364Z,1.85
2022-11-03T17:33:24.119Z,2.13
2022-11-03T17:35:53.485Z,2.30
2022-11-03T17:38:21.024Z,2.30
2022-11-03T17:40:49.321Z,2.28
2022-11-03T17:43:22.351Z,2.53
2022-11-03T17:45:50.340Z,2.30
2022-11-03T17:48:18.725Z,2.80
2022-11-03T17:50:48.346Z,2.47
2022-11-03T17:53:22.506Z,2.58
2022-11-03T17:56:09.008Z,2.45
2022-11-03T17:58:45.827Z,2.33
2022-11-03T18:01:16.234Z,2.50
2022-11-03T18:03:44.049Z,2.50
2022-11-03T18:06:16.616Z,2.58
2022-11-03T18:08:45.934Z,2.20
2022-11-03T18:11:35.244Z,2.40
2022-11-03T18:14:02.745Z,2.20
2022-11-03T18:16:32.487Z,2.73
2022-11-03T18:19:00.047Z,2.42
2022-11-03T18:21:28.272Z,2.27
2022-11-03T18:23:57.121Z,2.90
2022-11-03T18:26:27.174Z,3.17
2022-11-03T18:28:55.769Z,3.10
2022-11-03T18:31:26.274Z,3.00
2022-11-03T18:33:54.614Z,3.10
2022-11-03T18:36:22.114Z,2.92
2022-11-03T18:38:49.901Z,2.83
2022-11-03T18:41:40.471Z,2.70
2022-11-03T18:44:14.502Z,2.78
2022-11-03T18:46:42.806Z,2.92
2022-11-03T18:49:10.615Z,2.80
2022-11-03T18:51:38.491Z,3.03
2022-11-03T18:54:06.623Z,2.80
2022-11-03T18:56:38.144Z,3.17
2022-11-03T18:59:06.253Z,3.30
2022-11-03T19:01:34.172Z,3.10
2022-11-03T19:04:02.027Z,2.88
2022-11-03T19:06:29.740Z,2.70
2022-11-03T19:09:00.604Z,2.70
2022-11-03T19:11:28.186Z,3.13
2022-11-03T19:13:59.989Z,3.15
2022-11-03T19:16:27.595Z,3.10
2022-11-03T19:18:55.324Z,3.10
2022-11-03T19:21:25.185Z,3.10
2022-11-03T19:23:57.205Z,3.28
2022-11-03T19:26:29.442Z,2.97
2022-11-03T19:29:01.073Z,3.20
2022-11-03T19:31:32.435Z,3.22
2022-11-03T19:34:00.216Z,3.30
2022-11-03T19:36:31.357Z,3.80
2022-11-03T19:38:59.280Z,3.40
2022-11-03T19:41:44.950Z,3.10
2022-11-03T19:44:14.675Z,3.42
2022-11-03T19:46:43.099Z,3.22
2022-11-03T19:49:12.704Z,3.50
2022-11-03T19:51:41.773Z,3.25
2022-11-03T19:54:14.221Z,3.60
2022-11-03T19:56:42.062Z,3.45
2022-11-03T19:59:11.113Z,2.92
2022-11-03T20:01:40.582Z,3.58
2022-11-03T20:04:08.498Z,3.60
2022-11-03T20:06:37.965Z,3.55
2022-11-03T20:09:07.546Z,3.63
2022-11-03T20:11:36.414Z,3.40
2022-11-03T20:14:04.324Z,3.15
2022-11-03T20:16:32.156Z,3.35
2022-11-03T20:19:01.410Z,3.45
2022-11-03T20:21:34.197Z,3.90
2022-11-03T20:24:02.403Z,3.30
2022-11-03T20:26:30.163Z,3.53
2022-11-03T20:28:58.178Z,3.45
2022-11-03T20:31:25.841Z,4.00
2022-11-03T20:33:58.376Z,3.45
2022-11-03T20:36:28.352Z,3.50
2022-11-03T20:38:59.590Z,3.40
2022-11-03T20:41:28.057Z,3.70
2022-11-03T20:43:56.289Z,3.58
2022-11-03T20:46:25.833Z,3.45
2022-11-03T20:48:55.282Z,4.00
2022-11-03T20:51:27.759Z,3.83
2022-11-03T20:53:55.935Z,3.88
2022-11-03T20:56:25.346Z,4.00
2022-11-03T20:58:53.197Z,3.90
2022-11-03T21:01:25.015Z,4.00
2022-11-03T21:03:59.251Z,4.85
2022-11-03T21:06:30.231Z,3.97
2022-11-03T21:08:58.589Z,4.05
2022-11-03T21:11:30.920Z,3.97
2022-11-03T21:14:01.241Z,4.25
2022-11-03T21:16:48.704Z,3.83
2022-11-03T21:19:35.618Z,4.07
2022-11-03T21:22:30.879Z,4.50
2022-11-03T21:25:01.335Z,4.63
2022-11-03T21:27:30.683Z,4.35
2022-11-03T21:29:59.751Z,3.87
2022-11-03T21:32:28.794Z,4.30
2022-11-03T21:34:56.538Z,4.30
2022-11-03T21:37:28.846Z,4.78
2022-11-03T21:39:56.522Z,4.45
2022-11-03T21:42:41.627Z,4.45
2022-11-03T21:45:11.007Z,4.65
2022-11-03T21:47:59.519Z,4.40
2022-11-03T21:50:26.328Z,4.80
2022-11-03T21:52:55.263Z,4.28
2022-11-03T21:55:22.957Z,4.72
2022-11-03T21:57:50.582Z,4.80
2022-11-03T22:00:18.850Z,4.45
2022-11-03T22:02:46.377Z,4.80
2022-11-03T22:05:15.078Z,4.88
2022-11-03T22:07:42.606Z,4.70
2022-11-03T22:10:12.096Z,4.75
2022-11-03T22:12:40.054Z,4.85
2022-11-03T22:15:26.166Z,3.88
2022-11-03T22:17:53.847Z,3.95
2022-11-03T22:20:38.840Z,4.10
2022-11-03T22:23:24.102Z,3.50
2022-11-03T22:26:10.585Z,3.25
2022-11-03T22:28:39.916Z,3.47
2022-11-03T22:31:25.076Z,3.63
2022-11-03T22:34:10.424Z,3.72
2022-11-03T22:36:37.943Z,3.50
2022-11-03T22:39:22.994Z,3.60
2022-11-03T22:42:09.628Z,3.35
2022-11-03T22:44:56.938Z,3.25
2022-11-03T22:47:24.513Z,3.10
2022-11-03T22:49:52.364Z,3.40
2022-11-03T22:52:20.175Z,3.20
2022-11-03T22:54:46.916Z,3.60
2022-11-03T22:57:16.278Z,3.75
2022-11-03T22:59:43.865Z,3.80
2022-11-03T23:02:11.456Z,3.28
2022-11-03T23:04:39.230Z,3.60
2022-11-03T23:07:08.017Z,3.40
2022-11-03T23:09:35.799Z,3.30
2022-11-03T23:12:03.591Z,3.17
2022-11-03T23:15:01.581Z,3.25
2022-11-03T23:17:49.722Z,3.13
2022-11-03T23:20:35.094Z,3.60
2022-11-03T23:23:02.660Z,3.30
2022-11-03T23:25:29.237Z,2.97
2022-11-03T23:27:57.397Z,3.63
2022-11-03T23:30:26.626Z,3.22
2022-11-03T23:32:54.421Z,3.08
2022-11-03T23:35:22.978Z,3.08
2022-11-03T23:37:50.519Z,3.30
2022-11-03T23:40:20.569Z,3.20
2022-11-03T23:42:49.437Z,3.20
2022-11-03T23:45:34.927Z,3.33
2022-11-03T23:48:21.541Z,3.03
2022-11-03T23:50:49.422Z,3.03
2022-11-03T23:53:16.993Z,3.03
2022-11-03T23:55:58.588Z,3.13
2022-11-03T23:58:28.447Z,3.17
